Time;durP1;ratioP1;P1;durP2;ratioP2;P2;SDS_P1;SDS_P2;PMS_P1;PMS_P2;Temp;Humidity;BMP_temperature;BMP_pressure;BME280_temperature;BME280_humidity;BME280_pressure;Samples;Min_cycle;Max_cycle;Signal;HPM_P1;HPM_P2
2021/04/08 00:02:22;;;;;;;5.65;2.78;;;;;;;;;;5015010;28;20211;-83
2021/04/08 00:04:49;;;;;;;6.45;2.83;;;;;;;;;;5015640;28;20202;-82
2021/04/08 00:07:17;;;;;;;9.85;3.13;;;;;;;;;;4995497;28;20223;-83
2021/04/08 00:09:43;;;;;;;3.55;2.58;;;;;;;;;;5014343;28;20195;-83
2021/04/08 00:12:11;;;;;;;6.20;3.30;;;;;;;;;;5015254;28;20222;-82
2021/04/08 00:14:38;;;;;;;7.20;3.35;;;;;;;;;;5015357;28;20194;-81
2021/04/08 00:17:05;;;;;;;7.00;3.25;;;;;;;;;;5014461;28;20237;-83
2021/04/08 00:19:33;;;;;;;6.82;2.63;;;;;;;;;;5015557;28;20180;-82
2021/04/08 00:22:00;;;;;;;6.85;2.90;;;;;;;;;;5015166;28;20292;-80
2021/04/08 00:24:27;;;;;;;6.38;2.85;;;;;;;;;;5016126;28;20191;-83
2021/04/08 00:26:54;;;;;;;3.63;2.97;;;;;;;;;;5015113;28;20191;-82
2021/04/08 00:29:21;;;;;;;6.22;2.88;;;;;;;;;;5015340;28;20187;-81
2021/04/08 00:31:48;;;;;;;4.60;2.97;;;;;;;;;;5023307;28;20285;-82
2021/04/08 00:34:14;;;;;;;6.25;3.45;;;;;;;;;;5035046;28;20672;-81
2021/04/08 00:36:42;;;;;;;8.23;2.63;;;;;;;;;;5034897;28;20181;-82
2021/04/08 00:39:11;;;;;;;3.17;2.42;;;;;;;;;;5035658;28;20194;-82
2021/04/08 00:41:38;;;;;;;5.93;2.50;;;;;;;;;;5035004;28;20218;-81
2021/04/08 00:44:05;;;;;;;5.60;3.42;;;;;;;;;;5035120;28;20179;-82
2021/04/08 00:46:32;;;;;;;4.35;2.90;;;;;;;;;;5034963;28;20209;-80
2021/04/08 00:48:59;;;;;;;5.85;3.30;;;;;;;;;;5034819;28;20186;-82
2021/04/08 00:51:27;;;;;;;5.95;3.72;;;;;;;;;;5035529;28;20669;-82
2021/04/08 00:53:55;;;;;;;4.78;3.13;;;;;;;;;;5036384;28;20187;-82
2021/04/08 00:56:22;;;;;;;7.10;4.03;;;;;;;;;;5035246;28;20614;-82
2021/04/08 00:58:50;;;;;;;5.28;4.03;;;;;;;;;;5034885;28;20183;-83
2021/04/08 01:01:18;;;;;;;9.95;4.38;;;;;;;;;;5035241;28;20222;-81
2021/04/08 01:03:45;;;;;;;3.90;3.00;;;;;;;;;;5035206;28;20583;-83
2021/04/08 01:06:12;;;;;;;6.85;3.28;;;;;;;;;;5035380;28;20194;-82
2021/04/08 01:08:39;;;;;;;9.57;4.20;;;;;;;;;;5035376;28;20596;-81
2021/04/08 01:11:07;;;;;;;11.82;3.90;;;;;;;;;;5035159;28;20230;-82
2021/04/08 01:13:35;;;;;;;9.80;3.88;;;;;;;;;;5035827;28;20197;-82
2021/04/08 01:16:35;;;;;;;7.82;3.00;;;;;;;;;;5035330;28;20198;-82
2021/04/08 01:19:32;;;;;;;8.10;4.10;;;;;;;;;;5035462;28;20198;-82
2021/04/08 01:22:11;;;;;;;15.68;3.92;;;;;;;;;;5035496;28;20222;-82
2021/04/08 01:25:28;;;;;;;9.07;4.43;;;;;;;;;;5035670;28;20197;-81
2021/04/08 01:28:07;;;;;;;7.57;3.95;;;;;;;;;;5035216;28;20209;-81
2021/04/08 01:30:41;;;;;;;7.53;3.80;;;;;;;;;;5035260;28;20222;-83
2021/04/08 01:33:14;;;;;;;6.28;4.05;;;;;;;;;;5036919;28;20237;-83
2021/04/08 01:35:42;;;;;;;4.82;3.38;;;;;;;;;;5039407;28;20178;-82
2021/04/08 01:38:13;;;;;;;8.68;3.80;;;;;;;;;;5039925;28;20178;-83
2021/04/08 01:40:41;;;;;;;5.93;3.67;;;;;;;;;;5039524;28;20233;-81
2021/04/08 01:43:09;;;;;;;9.23;4.95;;;;;;;;;;5039601;28;20280;-81
2021/04/08 01:45:36;;;;;;;8.10;4.13;;;;;;;;;;5039498;28;20240;-82
2021/04/08 01:48:07;;;;;;;4.78;3.58;;;;;;;;;;5040003;28;20194;-82
2021/04/08 01:50:35;;;;;;;5.90;3.72;;;;;;;;;;5039968;28;20273;-81
2021/04/08 01:53:04;;;;;;;9.65;3.75;;;;;;;;;;5039880;28;20187;-82
2021/04/08 01:55:33;;;;;;;7.28;3.38;;;;;;;;;;5039422;28;20193;-82
2021/04/08 01:58:01;;;;;;;10.05;3.88;;;;;;;;;;5039609;28;20206;-82
2021/04/08 02:00:28;;;;;;;5.40;3.35;;;;;;;;;;5039808;28;20202;-83
2021/04/08 02:02:57;;;;;;;5.72;3.72;;;;;;;;;;5040337;28;20183;-82
2021/04/08 02:05:27;;;;;;;10.55;4.53;;;;;;;;;;5040409;28;20191;-82
2021/04/08 02:07:56;;;;;;;7.05;3.95;;;;;;;;;;5041527;28;20255;-82
2021/04/08 02:10:24;;;;;;;6.50;4.07;;;;;;;;;;5041087;28;20186;-81
2021/04/08 02:12:51;;;;;;;9.38;3.80;;;;;;;;;;5040733;28;20626;-83
2021/04/08 02:15:20;;;;;;;5.15;3.25;;;;;;;;;;5040374;28;20189;-81
2021/04/08 02:17:50;;;;;;;7.75;4.63;;;;;;;;;;5041078;28;20187;-82
2021/04/08 02:20:19;;;;;;;5.82;3.63;;;;;;;;;;5040096;28;20183;-82
2021/04/08 02:22:51;;;;;;;9.88;5.22;;;;;;;;;;5039986;28;20189;-82
2021/04/08 02:25:21;;;;;;;8.65;5.20;;;;;;;;;;5040187;28;20182;-82
2021/04/08 02:27:49;;;;;;;6.95;4.10;;;;;;;;;;5039823;28;20206;-82
2021/04/08 02:30:18;;;;;;;9.90;5.00;;;;;;;;;;5040162;28;20179;-82
2021/04/08 02:32:45;;;;;;;6.40;4.10;;;;;;;;;;5038542;28;20230;-81
2021/04/08 02:35:15;;;;;;;4.82;3.45;;;;;;;;;;5038767;28;20186;-82
2021/04/08 02:37:43;;;;;;;3.58;3.28;;;;;;;;;;5039904;28;20183;-82
2021/04/08 02:40:14;;;;;;;9.05;4.10;;;;;;;;;;5039664;28;20570;-82
2021/04/08 02:42:41;;;;;;;10.95;3.85;;;;;;;;;;5040268;28;20187;-82
2021/04/08 02:45:11;;;;;;;9.30;5.05;;;;;;;;;;5039360;28;20198;-83
2021/04/08 02:47:38;;;;;;;8.60;4.40;;;;;;;;;;5040311;28;20205;-82
2021/04/08 02:50:08;;;;;;;5.75;4.60;;;;;;;;;;5040494;28;20182;-81
2021/04/08 02:52:53;;;;;;;9.43;4.05;;;;;;;;;;5040289;28;20231;-83
2021/04/08 02:55:27;;;;;;;9.38;6.05;;;;;;;;;;5040687;28;20194;-83
2021/04/08 02:57:59;;;;;;;6.57;3.85;;;;;;;;;;5045209;28;20171;-80
2021/04/08 03:00:30;;;;;;;8.32;4.43;;;;;;;;;;5054623;28;20207;-82
2021/04/08 03:03:03;;;;;;;7.30;4.22;;;;;;;;;;5054185;28;20202;-81
2021/04/08 03:05:31;;;;;;;9.45;4.88;;;;;;;;;;5040214;28;20206;-83
2021/04/08 03:07:59;;;;;;;9.98;6.07;;;;;;;;;;5040794;28;20821;-83
2021/04/08 03:10:28;;;;;;;6.93;3.85;;;;;;;;;;5041205;28;20183;-83
2021/04/08 03:12:57;;;;;;;5.50;4.95;;;;;;;;;;5041942;28;20229;-82
2021/04/08 03:15:27;;;;;;;7.63;5.18;;;;;;;;;;5046076;28;20206;-82
2021/04/08 03:17:55;;;;;;;8.65;5.18;;;;;;;;;;5054483;28;20202;-81
2021/04/08 03:20:22;;;;;;;7.65;4.35;;;;;;;;;;5053559;28;20191;-79
2021/04/08 03:22:52;;;;;;;5.35;4.85;;;;;;;;;;5053705;28;20205;-84
2021/04/08 03:25:19;;;;;;;12.65;5.10;;;;;;;;;;5036974;28;20321;-83
2021/04/08 03:27:49;;;;;;;7.40;5.72;;;;;;;;;;5037439;28;20186;-82
2021/04/08 03:30:17;;;;;;;12.77;4.93;;;;;;;;;;5038871;28;20197;-82
2021/04/08 03:32:45;;;;;;;9.30;4.60;;;;;;;;;;5036827;28;20238;-80
2021/04/08 03:35:13;;;;;;;14.02;4.68;;;;;;;;;;5037279;28;20208;-82
2021/04/08 03:37:41;;;;;;;5.47;3.92;;;;;;;;;;5038166;28;20213;-82
2021/04/08 03:40:11;;;;;;;17.23;6.15;;;;;;;;;;5038186;28;20194;-82
2021/04/08 03:42:38;;;;;;;6.80;4.43;;;;;;;;;;5036417;28;20280;-81
2021/04/08 03:45:09;;;;;;;8.55;4.93;;;;;;;;;;5037378;28;20274;-81
2021/04/08 03:47:39;;;;;;;6.88;5.18;;;;;;;;;;5038378;28;20237;-82
2021/04/08 03:50:08;;;;;;;8.30;4.80;;;;;;;;;;5038129;28;20187;-80
2021/04/08 03:52:35;;;;;;;4.78;4.35;;;;;;;;;;5037433;28;20230;-81
2021/04/08 03:55:04;;;;;;;12.13;4.95;;;;;;;;;;5036610;28;20540;-80
2021/04/08 03:57:35;;;;;;;7.22;4.45;;;;;;;;;;5037796;28;20201;-81
2021/04/08 04:00:07;;;;;;;5.05;4.00;;;;;;;;;;5037956;28;20752;-82
2021/04/08 04:02:35;;;;;;;7.97;4.50;;;;;;;;;;5037946;28;20344;-81
2021/04/08 04:05:04;;;;;;;9.15;5.45;;;;;;;;;;5039240;28;20186;-81
2021/04/08 04:07:32;;;;;;;12.60;5.85;;;;;;;;;;5038261;28;20633;-80
2021/04/08 04:10:00;;;;;;;7.53;4.28;;;;;;;;;;5037477;28;20187;-82
2021/04/08 04:12:27;;;;;;;8.73;4.63;;;;;;;;;;5035890;28;20226;-81
2021/04/08 04:14:56;;;;;;;5.05;4.20;;;;;;;;;;5036677;28;20208;-81
2021/04/08 04:17:29;;;;;;;11.35;5.28;;;;;;;;;;5037100;28;20677;-82
2021/04/08 04:19:57;;;;;;;9.43;5.13;;;;;;;;;;5037343;28;20206;-84
2021/04/08 04:22:25;;;;;;;8.32;5.15;;;;;;;;;;5037751;28;20597;-82
2021/04/08 04:24:52;;;;;;;7.85;5.35;;;;;;;;;;5037135;28;20277;-81
2021/04/08 04:27:19;;;;;;;9.07;4.90;;;;;;;;;;5037142;28;20183;-82
2021/04/08 04:29:47;;;;;;;5.82;5.22;;;;;;;;;;5036966;28;20210;-80
2021/04/08 04:32:14;;;;;;;14.43;5.82;;;;;;;;;;5036454;28;20788;-82
2021/04/08 04:34:43;;;;;;;9.30;5.45;;;;;;;;;;5036927;28;20206;-82
2021/04/08 04:37:11;;;;;;;12.13;5.57;;;;;;;;;;5036544;28;20201;-82
2021/04/08 04:39:39;;;;;;;14.50;5.57;;;;;;;;;;5036870;28;20187;-82
2021/04/08 04:42:08;;;;;;;7.72;5.47;;;;;;;;;;5036902;28;20226;-81
2021/04/08 04:44:35;;;;;;;9.10;4.90;;;;;;;;;;5037013;28;20250;-84
2021/04/08 04:47:03;;;;;;;9.38;5.35;;;;;;;;;;5036703;28;20182;-82
2021/04/08 04:49:30;;;;;;;5.68;4.78;;;;;;;;;;5039813;28;20258;-82
2021/04/08 04:51:58;;;;;;;9.88;5.05;;;;;;;;;;5037268;28;20771;-82
2021/04/08 04:54:25;;;;;;;6.53;5.05;;;;;;;;;;5036214;28;20203;-82
2021/04/08 04:56:52;;;;;;;12.15;5.97;;;;;;;;;;5035826;28;20233;-83
2021/04/08 04:59:19;;;;;;;7.22;5.00;;;;;;;;;;5036422;28;20199;-82
2021/04/08 05:01:46;;;;;;;7.93;6.05;;;;;;;;;;5040751;28;20233;-82
2021/04/08 05:04:13;;;;;;;7.15;5.20;;;;;;;;;;5034976;28;20202;-82
2021/04/08 05:06:40;;;;;;;8.05;4.90;;;;;;;;;;5037318;28;20669;-82
2021/04/08 05:09:08;;;;;;;8.35;4.97;;;;;;;;;;5040696;28;20206;-81
2021/04/08 05:11:35;;;;;;;10.95;6.47;;;;;;;;;;5039993;28;20230;-81
2021/04/08 05:14:02;;;;;;;10.27;5.53;;;;;;;;;;5041430;28;20265;-83
2021/04/08 05:16:29;;;;;;;10.13;5.90;;;;;;;;;;5040338;28;20585;-81
2021/04/08 05:18:56;;;;;;;5.88;4.63;;;;;;;;;;5040827;28;20183;-82
2021/04/08 05:21:23;;;;;;;10.82;5.97;;;;;;;;;;5039640;28;20231;-81
2021/04/08 05:23:50;;;;;;;9.00;5.22;;;;;;;;;;5037775;28;20207;-83
2021/04/08 05:26:18;;;;;;;10.43;4.85;;;;;;;;;;5038393;28;20677;-82
2021/04/08 05:28:45;;;;;;;10.50;6.05;;;;;;;;;;5039515;28;20198;-83
2021/04/08 05:31:12;;;;;;;6.40;4.75;;;;;;;;;;5039336;28;20605;-83
2021/04/08 05:33:38;;;;;;;5.57;4.50;;;;;;;;;;5040109;28;20287;-83
2021/04/08 05:36:06;;;;;;;6.57;5.00;;;;;;;;;;5040263;28;20202;-82
2021/04/08 05:38:33;;;;;;;7.20;4.43;;;;;;;;;;5041126;28;20194;-84
2021/04/08 05:41:00;;;;;;;6.10;4.43;;;;;;;;;;5041887;28;20304;-83
2021/04/08 05:43:28;;;;;;;8.00;4.70;;;;;;;;;;5041446;28;20237;-83
2021/04/08 05:45:55;;;;;;;10.43;5.60;;;;;;;;;;5041201;28;20703;-83
2021/04/08 05:48:22;;;;;;;7.10;4.70;;;;;;;;;;5040339;28;20194;-82
2021/04/08 05:50:49;;;;;;;11.10;5.30;;;;;;;;;;5040854;28;20223;-83
2021/04/08 05:53:16;;;;;;;6.43;4.45;;;;;;;;;;5041474;28;20696;-81
2021/04/08 05:55:43;;;;;;;7.68;4.63;;;;;;;;;;5041057;28;20201;-83
2021/04/08 05:58:10;;;;;;;5.40;4.15;;;;;;;;;;5041719;28;20293;-83
2021/04/08 06:00:38;;;;;;;8.82;5.75;;;;;;;;;;5040423;28;20309;-83
2021/04/08 06:03:05;;;;;;;7.90;4.85;;;;;;;;;;5041569;28;20202;-82
2021/04/08 06:05:34;;;;;;;8.60;4.60;;;;;;;;;;5040125;28;20206;-83
2021/04/08 06:08:01;;;;;;;6.88;4.25;;;;;;;;;;5040523;28;20198;-85
2021/04/08 06:10:28;;;;;;;9.68;4.18;;;;;;;;;;5040577;28;20444;-84
2021/04/08 06:12:55;;;;;;;5.82;5.25;;;;;;;;;;5041210;28;20248;-83
2021/04/08 06:15:23;;;;;;;11.98;4.40;;;;;;;;;;5041170;28;20312;-84
2021/04/08 06:17:51;;;;;;;9.27;4.65;;;;;;;;;;5041145;28;20198;-83
2021/04/08 06:20:18;;;;;;;5.63;4.50;;;;;;;;;;5040497;28;20199;-83
2021/04/08 06:22:45;;;;;;;8.52;4.90;;;;;;;;;;5041289;28;20268;-84
2021/04/08 06:25:13;;;;;;;6.55;3.70;;;;;;;;;;5042168;28;20571;-82
2021/04/08 06:27:40;;;;;;;6.95;3.58;;;;;;;;;;5043776;28;20641;-81
2021/04/08 06:30:10;;;;;;;7.13;4.55;;;;;;;;;;5044509;28;20652;-82
2021/04/08 06:32:38;;;;;;;6.32;4.15;;;;;;;;;;5042654;28;20248;-81
2021/04/08 06:35:09;;;;;;;9.13;4.53;;;;;;;;;;5045175;28;20210;-82
2021/04/08 06:37:36;;;;;;;10.23;4.97;;;;;;;;;;5044883;28;20266;-81
2021/04/08 06:40:04;;;;;;;4.05;3.65;;;;;;;;;;5044707;28;20572;-80
2021/04/08 06:42:32;;;;;;;10.57;4.72;;;;;;;;;;5044558;28;20240;-82
2021/04/08 06:45:00;;;;;;;6.03;4.13;;;;;;;;;;5043376;28;20233;-82
2021/04/08 06:47:31;;;;;;;6.25;4.28;;;;;;;;;;5043361;28;20202;-82
2021/04/08 06:50:03;;;;;;;7.72;3.67;;;;;;;;;;5044752;28;20226;-82
2021/04/08 06:52:31;;;;;;;4.72;3.35;;;;;;;;;;5044912;28;20309;-82
2021/04/08 06:54:59;;;;;;;6.82;4.22;;;;;;;;;;5045439;28;20213;-82
2021/04/08 06:57:26;;;;;;;7.90;3.80;;;;;;;;;;5046638;28;20198;-82
2021/04/08 06:59:53;;;;;;;8.40;4.57;;;;;;;;;;5045728;28;20233;-82
2021/04/08 07:02:22;;;;;;;5.50;4.22;;;;;;;;;;5045678;28;20236;-82
2021/04/08 07:04:49;;;;;;;6.15;4.32;;;;;;;;;;5046482;28;20225;-82
2021/04/08 07:07:17;;;;;;;4.82;3.97;;;;;;;;;;5045878;28;20229;-83
2021/04/08 07:09:45;;;;;;;4.35;3.83;;;;;;;;;;5046353;28;20289;-82
2021/04/08 07:12:14;;;;;;;6.97;4.00;;;;;;;;;;5045608;28;20242;-82
2021/04/08 07:14:41;;;;;;;8.05;3.90;;;;;;;;;;5046011;28;20276;-81
2021/04/08 07:17:10;;;;;;;7.30;3.45;;;;;;;;;;5045082;28;20791;-83
2021/04/08 07:19:38;;;;;;;4.38;3.42;;;;;;;;;;5043949;28;20549;-82
2021/04/08 07:22:05;;;;;;;6.55;3.92;;;;;;;;;;5045690;28;20638;-82
2021/04/08 07:24:43;;;;;;;7.13;4.47;;;;;;;;;;5046955;28;20207;-82
2021/04/08 07:27:16;;;;;;;4.88;3.63;;;;;;;;;;5045591;28;20228;-82
2021/04/08 07:29:52;;;;;;;4.38;3.20;;;;;;;;;;5046378;28;20207;-81
2021/04/08 07:32:28;;;;;;;5.55;4.13;;;;;;;;;;5045980;28;20308;-82
2021/04/08 07:34:57;;;;;;;12.27;4.25;;;;;;;;;;5045974;28;20226;-83
2021/04/08 07:37:31;;;;;;;6.55;3.80;;;;;;;;;;5046810;28;20206;-82
2021/04/08 07:40:00;;;;;;;6.47;3.28;;;;;;;;;;5047394;28;20237;-83
2021/04/08 07:42:30;;;;;;;5.15;3.30;;;;;;;;;;5047437;28;20669;-83
2021/04/08 07:45:00;;;;;;;5.90;3.88;;;;;;;;;;5047432;28;20285;-83
2021/04/08 07:47:31;;;;;;;6.47;3.10;;;;;;;;;;5046935;28;20198;-82
2021/04/08 07:50:11;;;;;;;10.27;4.28;;;;;;;;;;5047351;28;20653;-82
2021/04/08 07:52:41;;;;;;;6.70;3.53;;;;;;;;;;5047901;28;20264;-83
2021/04/08 07:55:12;;;;;;;6.60;3.75;;;;;;;;;;5047132;28;20600;-82
2021/04/08 07:58:01;;;;;;;5.40;3.88;;;;;;;;;;5046576;28;20211;-82
2021/04/08 08:00:31;;;;;;;5.63;4.10;;;;;;;;;;5044861;28;20340;-83
2021/04/08 08:03:01;;;;;;;6.65;3.60;;;;;;;;;;5046049;28;20618;-83
2021/04/08 08:05:30;;;;;;;7.70;3.97;;;;;;;;;;5046561;28;20711;-83
2021/04/08 08:08:11;;;;;;;7.50;3.20;;;;;;;;;;5046165;28;20665;-83
2021/04/08 08:10:40;;;;;;;3.85;3.20;;;;;;;;;;5045596;28;20254;-82
2021/04/08 08:13:26;;;;;;;10.23;3.45;;;;;;;;;;5044763;28;20202;-82
2021/04/08 08:15:55;;;;;;;4.68;2.83;;;;;;;;;;5044147;28;20279;-83
2021/04/08 08:18:32;;;;;;;6.65;3.22;;;;;;;;;;5045451;28;20232;-83
2021/04/08 08:21:08;;;;;;;5.82;3.20;;;;;;;;;;5044774;28;20218;-81
2021/04/08 08:23:38;;;;;;;5.50;2.85;;;;;;;;;;5044975;28;20202;-82
2021/04/08 08:26:30;;;;;;;5.32;2.90;;;;;;;;;;5043873;28;20210;-82
2021/04/08 08:29:00;;;;;;;7.90;3.60;;;;;;;;;;5044338;28;20640;-82
2021/04/08 08:31:43;;;;;;;4.78;3.00;;;;;;;;;;5043632;28;20232;-82
2021/04/08 08:34:12;;;;;;;2.90;2.53;;;;;;;;;;5044728;28;20233;-83
2021/04/08 08:36:40;;;;;;;4.45;2.85;;;;;;;;;;5044910;28;20210;-82
2021/04/08 08:39:11;;;;;;;6.97;2.47;;;;;;;;;;5044211;28;20198;-82
2021/04/08 08:41:39;;;;;;;6.03;3.33;;;;;;;;;;5045120;28;20229;-82
2021/04/08 08:44:10;;;;;;;7.15;2.80;;;;;;;;;;5045045;28;20187;-82
2021/04/08 08:46:45;;;;;;;4.40;2.75;;;;;;;;;;5045291;28;20293;-81
2021/04/08 08:49:15;;;;;;;6.80;3.55;;;;;;;;;;5046041;28;20609;-83
2021/04/08 08:51:42;;;;;;;4.05;2.20;;;;;;;;;;5045354;28;20217;-82
2021/04/08 08:54:10;;;;;;;5.63;2.92;;;;;;;;;;5046276;28;20226;-82
2021/04/08 08:56:39;;;;;;;5.13;2.20;;;;;;;;;;5045887;28;20206;-84
2021/04/08 08:59:07;;;;;;;8.95;2.92;;;;;;;;;;5040410;28;20242;-82
2021/04/08 09:01:35;;;;;;;4.40;2.53;;;;;;;;;;5034575;28;20219;-82
2021/04/08 09:04:04;;;;;;;2.65;2.10;;;;;;;;;;5035932;28;20187;-83
2021/04/08 09:06:31;;;;;;;5.65;2.75;;;;;;;;;;5034240;28;20194;-83
2021/04/08 09:09:02;;;;;;;3.67;2.30;;;;;;;;;;5037232;28;20210;-82
2021/04/08 09:11:32;;;;;;;4.88;2.45;;;;;;;;;;5035133;28;20219;-82
2021/04/08 09:14:00;;;;;;;3.33;2.47;;;;;;;;;;5037530;28;20219;-82
2021/04/08 09:16:47;;;;;;;6.35;1.98;;;;;;;;;;5025933;28;20199;-83
2021/04/08 09:19:24;;;;;;;3.05;2.15;;;;;;;;;;5030063;28;20194;-82
2021/04/08 09:21:53;;;;;;;3.63;2.42;;;;;;;;;;5045750;28;20226;-81
2021/04/08 09:24:22;;;;;;;4.20;1.70;;;;;;;;;;5043086;28;20247;-80
2021/04/08 09:26:52;;;;;;;2.42;1.65;;;;;;;;;;5034035;28;20198;-80
2021/04/08 09:29:51;;;;;;;6.40;3.08;;;;;;;;;;5038420;28;20202;-81
2021/04/08 09:32:33;;;;;;;3.30;1.98;;;;;;;;;;5047049;28;20848;-81
2021/04/08 09:35:12;;;;;;;4.15;1.77;;;;;;;;;;5048393;28;20228;-82
2021/04/08 09:38:28;;;;;;;12.38;4.30;;;;;;;;;;5048001;28;20194;-80
2021/04/08 09:41:03;;;;;;;4.82;2.10;;;;;;;;;;4988857;28;20222;-80
2021/04/08 09:43:32;;;;;;;4.22;2.30;;;;;;;;;;5044290;28;20738;-81
2021/04/08 09:46:17;;;;;;;5.35;2.13;;;;;;;;;;5043358;28;20267;-81
2021/04/08 09:48:55;;;;;;;2.70;1.60;;;;;;;;;;5043604;28;20181;-80
2021/04/08 09:51:38;;;;;;;3.95;1.88;;;;;;;;;;5044079;28;20236;-81
2021/04/08 09:54:09;;;;;;;2.42;1.70;;;;;;;;;;5044886;28;20226;-81
2021/04/08 09:56:55;;;;;;;1.92;1.60;;;;;;;;;;5047917;28;20230;-82
2021/04/08 09:59:25;;;;;;;2.13;1.52;;;;;;;;;;5047770;28;20186;-84
2021/04/08 10:01:52;;;;;;;4.03;1.63;;;;;;;;;;5046792;28;20218;-82
2021/04/08 10:04:25;;;;;;;2.65;1.38;;;;;;;;;;5042958;28;20203;-80
2021/04/08 10:07:03;;;;;;;2.03;1.83;;;;;;;;;;5043547;28;20218;-80
2021/04/08 10:09:30;;;;;;;4.03;1.80;;;;;;;;;;5046609;28;20669;-83
2021/04/08 10:11:58;;;;;;;2.95;1.35;;;;;;;;;;5046580;28;20280;-82
2021/04/08 10:14:27;;;;;;;3.17;1.38;;;;;;;;;;5047184;28;20737;-84
2021/04/08 10:17:08;;;;;;;3.72;1.35;;;;;;;;;;5049111;28;20250;-82
2021/04/08 10:19:38;;;;;;;2.70;1.48;;;;;;;;;;5048057;28;20237;-83
2021/04/08 10:22:06;;;;;;;3.50;1.20;;;;;;;;;;5048151;28;20229;-82
2021/04/08 10:24:42;;;;;;;5.63;1.58;;;;;;;;;;5048670;28;20250;-83
2021/04/08 10:27:15;;;;;;;2.85;2.17;;;;;;;;;;5047556;28;20182;-83
2021/04/08 10:29:44;;;;;;;4.65;1.70;;;;;;;;;;5040386;28;20203;-81
2021/04/08 10:32:13;;;;;;;1.30;1.13;;;;;;;;;;5028543;28;20615;-82
2021/04/08 10:34:42;;;;;;;2.42;1.20;;;;;;;;;;5021546;28;20211;-82
2021/04/08 10:37:10;;;;;;;1.77;1.35;;;;;;;;;;5022565;28;20703;-83
2021/04/08 10:39:40;;;;;;;3.70;1.33;;;;;;;;;;5021030;28;20214;-82
2021/04/08 10:42:10;;;;;;;1.98;1.23;;;;;;;;;;5019024;28;20250;-83
2021/04/08 10:44:38;;;;;;;1.98;1.58;;;;;;;;;;5020260;28;20195;-82
2021/04/08 10:47:11;;;;;;;1.58;1.15;;;;;;;;;;5019138;28;20219;-82
2021/04/08 10:49:45;;;;;;;2.25;1.15;;;;;;;;;;5023529;28;20581;-82
2021/04/08 10:52:15;;;;;;;2.35;1.33;;;;;;;;;;5022761;28;20290;-82
2021/04/08 10:54:44;;;;;;;2.47;1.27;;;;;;;;;;5020150;28;20252;-82
2021/04/08 10:57:13;;;;;;;1.35;1.25;;;;;;;;;;5020976;28;20195;-82
2021/04/08 10:59:43;;;;;;;3.65;1.25;;;;;;;;;;5022567;28;20191;-83
2021/04/08 11:02:22;;;;;;;1.95;1.40;;;;;;;;;;5022136;28;20239;-83
2021/04/08 11:04:51;;;;;;;4.40;1.92;;;;;;;;;;5023946;28;20222;-82
2021/04/08 11:07:18;;;;;;;3.25;2.05;;;;;;;;;;5023079;28;20195;-82
2021/04/08 11:09:47;;;;;;;2.33;1.13;;;;;;;;;;5022141;28;20586;-82
2021/04/08 11:12:22;;;;;;;3.25;1.40;;;;;;;;;;5022885;28;20223;-83
2021/04/08 11:14:51;;;;;;;1.20;1.10;;;;;;;;;;5021410;28;20213;-83
2021/04/08 11:17:19;;;;;;;6.38;1.45;;;;;;;;;;5021663;28;20245;-84
2021/04/08 11:19:46;;;;;;;1.20;1.10;;;;;;;;;;5021376;28;20962;-82
2021/04/08 11:22:16;;;;;;;1.95;1.75;;;;;;;;;;5020957;28;20309;-83
2021/04/08 11:24:44;;;;;;;3.97;1.77;;;;;;;;;;5021030;28;20321;-83
2021/04/08 11:27:13;;;;;;;1.67;1.17;;;;;;;;;;5020058;28;20599;-82
2021/04/08 11:29:41;;;;;;;1.30;1.20;;;;;;;;;;5020515;28;20191;-82
2021/04/08 11:32:11;;;;;;;3.85;1.30;;;;;;;;;;5020539;28;20917;-82
2021/04/08 11:34:48;;;;;;;2.67;1.48;;;;;;;;;;5021702;28;20345;-82
2021/04/08 11:37:18;;;;;;;2.75;1.63;;;;;;;;;;5021561;28;20226;-83
2021/04/08 11:39:46;;;;;;;1.50;1.15;;;;;;;;;;5022068;28;20176;-83
2021/04/08 11:42:20;;;;;;;3.58;1.85;;;;;;;;;;5021350;28;20600;-82
2021/04/08 11:44:50;;;;;;;3.47;1.35;;;;;;;;;;5022667;28;20180;-83
2021/04/08 11:47:19;;;;;;;2.92;1.40;;;;;;;;;;5024063;28;20198;-83
2021/04/08 11:49:49;;;;;;;3.85;1.50;;;;;;;;;;5024633;28;20239;-83
2021/04/08 11:52:19;;;;;;;2.45;1.45;;;;;;;;;;5023198;28;20223;-83
2021/04/08 11:55:09;;;;;;;3.55;1.58;;;;;;;;;;5022429;28;20776;-82
2021/04/08 11:57:36;;;;;;;3.60;1.70;;;;;;;;;;5023464;28;20199;-83
2021/04/08 12:00:08;;;;;;;1.75;1.58;;;;;;;;;;5022079;28;20207;-82
2021/04/08 12:02:37;;;;;;;2.25;1.88;;;;;;;;;;5022107;28;20223;-82
2021/04/08 12:05:09;;;;;;;6.35;1.90;;;;;;;;;;5022965;28;20230;-83
2021/04/08 12:07:43;;;;;;;2.47;2.08;;;;;;;;;;5024909;28;20222;-83
2021/04/08 12:10:27;;;;;;;1.80;1.70;;;;;;;;;;5024292;28;20247;-83
2021/04/08 12:12:56;;;;;;;5.18;2.08;;;;;;;;;;5023097;28;20207;-84
2021/04/08 12:15:45;;;;;;;2.42;1.60;;;;;;;;;;5024205;28;20246;-82
2021/04/08 12:18:25;;;;;;;3.63;1.80;;;;;;;;;;5024004;28;20554;-83
2021/04/08 12:20:53;;;;;;;3.95;2.15;;;;;;;;;;5024296;28;20683;-84
2021/04/08 12:23:24;;;;;;;2.33;1.80;;;;;;;;;;5024039;28;20263;-84
2021/04/08 12:25:54;;;;;;;3.70;1.70;;;;;;;;;;5022116;28;20198;-84
2021/04/08 12:28:24;;;;;;;1.90;1.50;;;;;;;;;;5021675;28;20202;-84
2021/04/08 12:30:59;;;;;;;1.77;1.60;;;;;;;;;;5022576;28;20229;-84
2021/04/08 12:33:28;;;;;;;2.95;2.05;;;;;;;;;;5042766;28;20262;-84
2021/04/08 12:35:56;;;;;;;3.80;2.42;;;;;;;;;;5042425;28;20226;-83
2021/04/08 12:38:25;;;;;;;2.97;2.00;;;;;;;;;;5042064;28;20301;-84
2021/04/08 12:40:53;;;;;;;3.70;2.10;;;;;;;;;;5041785;28;20276;-84
2021/04/08 12:43:21;;;;;;;3.38;1.70;;;;;;;;;;5042901;28;20191;-83
2021/04/08 12:45:48;;;;;;;7.85;2.58;;;;;;;;;;5045943;28;20198;-84
2021/04/08 12:48:15;;;;;;;2.88;1.80;;;;;;;;;;5042105;28;20281;-83
2021/04/08 12:50:45;;;;;;;2.83;1.80;;;;;;;;;;5040997;28;20249;-84
2021/04/08 12:53:13;;;;;;;3.90;2.00;;;;;;;;;;5041586;28;20251;-84
2021/04/08 12:55:42;;;;;;;3.38;2.03;;;;;;;;;;5041066;28;20606;-84
2021/04/08 12:58:09;;;;;;;2.83;2.58;;;;;;;;;;5040363;28;20646;-83
2021/04/08 13:00:37;;;;;;;3.58;2.50;;;;;;;;;;5041337;28;20226;-85
2021/04/08 13:03:05;;;;;;;3.20;2.13;;;;;;;;;;5040786;28;20266;-84
2021/04/08 13:05:32;;;;;;;7.43;2.42;;;;;;;;;;5041849;28;20203;-84
2021/04/08 13:08:00;;;;;;;7.88;3.25;;;;;;;;;;5041106;28;20281;-83
2021/04/08 13:10:27;;;;;;;3.03;2.72;;;;;;;;;;5041331;28;20202;-84
2021/04/08 13:12:55;;;;;;;6.22;2.88;;;;;;;;;;5042050;28;20267;-82
2021/04/08 13:15:22;;;;;;;6.03;2.85;;;;;;;;;;5039679;28;20598;-83
2021/04/08 13:17:50;;;;;;;2.92;2.60;;;;;;;;;;5041279;28;20202;-83
2021/04/08 13:20:20;;;;;;;7.03;2.42;;;;;;;;;;5040163;28;20202;-83
2021/04/08 13:22:47;;;;;;;4.10;3.17;;;;;;;;;;5038862;28;20568;-83
2021/04/08 13:25:15;;;;;;;3.35;3.05;;;;;;;;;;5041630;28;20203;-84
2021/04/08 13:27:42;;;;;;;4.70;2.92;;;;;;;;;;5042307;28;20221;-84
2021/04/08 13:30:14;;;;;;;2.88;2.47;;;;;;;;;;5045106;28;20656;-83
2021/04/08 13:32:41;;;;;;;7.63;2.83;;;;;;;;;;5044065;28;20230;-83
2021/04/08 13:35:09;;;;;;;4.15;3.25;;;;;;;;;;5045816;28;20209;-84
2021/04/08 13:37:36;;;;;;;2.97;2.53;;;;;;;;;;5043655;28;20593;-83
2021/04/08 13:40:06;;;;;;;4.22;3.05;;;;;;;;;;5044946;28;20183;-84
2021/04/08 13:42:34;;;;;;;4.25;3.03;;;;;;;;;;5045877;28;20591;-84
2021/04/08 13:45:01;;;;;;;4.03;2.67;;;;;;;;;;5044647;28;20668;-84
2021/04/08 13:47:29;;;;;;;3.83;3.03;;;;;;;;;;5044582;28;20605;-83
2021/04/08 13:49:56;;;;;;;4.13;2.85;;;;;;;;;;5045364;28;20270;-84
2021/04/08 13:52:23;;;;;;;3.50;3.20;;;;;;;;;;5044760;28;20233;-84
2021/04/08 13:54:50;;;;;;;4.22;2.80;;;;;;;;;;5045498;28;20179;-84
2021/04/08 13:57:17;;;;;;;3.55;3.00;;;;;;;;;;5043678;28;20230;-84
2021/04/08 13:59:44;;;;;;;3.28;3.03;;;;;;;;;;5043421;28;20643;-84
2021/04/08 14:02:11;;;;;;;8.93;2.75;;;;;;;;;;5044404;28;20225;-84
2021/04/08 14:04:39;;;;;;;3.05;2.70;;;;;;;;;;5044625;28;20195;-84
2021/04/08 14:07:08;;;;;;;4.70;3.03;;;;;;;;;;5045083;28;20576;-84
2021/04/08 14:09:35;;;;;;;3.70;3.08;;;;;;;;;;5044622;28;20261;-84
2021/04/08 14:12:02;;;;;;;5.75;3.10;;;;;;;;;;5045663;28;20246;-84
2021/04/08 14:14:29;;;;;;;5.45;3.30;;;;;;;;;;5045406;28;20665;-84
2021/04/08 14:16:56;;;;;;;3.60;3.30;;;;;;;;;;5045311;28;20228;-84
2021/04/08 14:19:23;;;;;;;3.33;3.03;;;;;;;;;;5046071;28;20699;-84
2021/04/08 14:21:51;;;;;;;3.22;2.92;;;;;;;;;;5045588;28;20225;-84
2021/04/08 14:24:18;;;;;;;3.22;3.00;;;;;;;;;;5044883;28;20214;-84
2021/04/08 14:26:45;;;;;;;3.90;3.00;;;;;;;;;;5044570;28;20206;-83
2021/04/08 14:29:12;;;;;;;6.22;3.33;;;;;;;;;;5045171;28;20194;-84
2021/04/08 14:31:40;;;;;;;6.47;4.10;;;;;;;;;;5045194;28;20293;-84
2021/04/08 14:34:07;;;;;;;4.80;4.30;;;;;;;;;;5044083;28;20205;-84
2021/04/08 14:36:33;;;;;;;3.85;3.10;;;;;;;;;;5045210;28;20223;-85
2021/04/08 14:39:02;;;;;;;5.80;3.83;;;;;;;;;;5046111;28;20670;-85
2021/04/08 14:41:29;;;;;;;5.00;4.10;;;;;;;;;;5044478;28;20254;-85
2021/04/08 14:43:56;;;;;;;4.13;3.40;;;;;;;;;;5047667;28;20296;-84
2021/04/08 14:46:23;;;;;;;5.50;3.85;;;;;;;;;;5045797;28;20202;-83
2021/04/08 14:48:50;;;;;;;4.72;3.25;;;;;;;;;;5044779;28;20209;-84
2021/04/08 14:51:17;;;;;;;3.75;2.97;;;;;;;;;;5046152;28;20233;-85
2021/04/08 14:53:44;;;;;;;6.20;3.35;;;;;;;;;;5045288;28;20191;-84
2021/04/08 14:56:13;;;;;;;3.22;2.92;;;;;;;;;;5044003;28;20222;-84
2021/04/08 14:58:40;;;;;;;3.97;3.25;;;;;;;;;;5044610;28;20252;-84